createdAt,value
2023-12-12T00:01:53.682Z,40.41
2023-12-12T00:04:39.251Z,40.20
2023-12-12T00:07:24.654Z,40.32
2023-12-12T00:10:10.127Z,40.31
2023-12-12T00:12:55.243Z,40.18
2023-12-12T00:15:40.139Z,40.06
2023-12-12T00:18:25.257Z,40.10
2023-12-12T00:21:10.684Z,40.28
2023-12-12T00:23:55.625Z,40.26
2023-12-12T00:26:40.599Z,40.16
2023-12-12T00:29:25.841Z,40.13
2023-12-12T00:32:10.658Z,40.33
2023-12-12T00:34:56.108Z,40.33
2023-12-12T00:37:41.254Z,40.30
2023-12-12T00:40:26.690Z,40.28
2023-12-12T00:43:12.273Z,40.13
2023-12-12T00:45:57.386Z,40.21
2023-12-12T00:48:42.928Z,40.15
2023-12-12T00:51:28.509Z,40.00
2023-12-12T00:54:13.373Z,40.08
2023-12-12T00:56:58.348Z,39.98
2023-12-12T00:59:43.536Z,40.21
2023-12-12T01:02:28.595Z,40.00
2023-12-12T01:05:13.577Z,39.93
2023-12-12T01:07:58.928Z,40.26
2023-12-12T01:10:44.049Z,40.03
2023-12-12T01:13:29.522Z,40.18
2023-12-12T01:16:14.689Z,39.95
2023-12-12T01:19:00.246Z,40.13
2023-12-12T01:21:45.640Z,40.17
2023-12-12T01:24:30.496Z,40.13
2023-12-12T01:27:15.479Z,39.94
2023-12-12T01:30:00.430Z,39.94
2023-12-12T01:32:45.621Z,39.94
2023-12-12T01:35:30.934Z,40.01
2023-12-12T01:38:15.973Z,40.05
2023-12-12T01:41:04.409Z,40.31
2023-12-12T01:43:49.465Z,40.08
2023-12-12T01:46:34.522Z,40.06
2023-12-12T01:49:19.908Z,40.21
2023-12-12T01:52:05.093Z,40.13
2023-12-12T01:54:50.658Z,40.12
2023-12-12T01:57:35.486Z,40.38
2023-12-12T02:00:20.217Z,40.19
2023-12-12T02:03:05.216Z,40.23
2023-12-12T02:05:50.458Z,40.11
2023-12-12T02:08:35.657Z,40.04
2023-12-12T02:11:20.537Z,40.02
2023-12-12T02:14:05.565Z,40.33
2023-12-12T02:16:50.447Z,40.06
2023-12-12T02:19:35.639Z,40.10
2023-12-12T02:22:20.918Z,40.33
2023-12-12T02:25:06.401Z,40.18
2023-12-12T02:27:51.862Z,39.95
2023-12-12T02:30:36.696Z,40.27
2023-12-12T02:33:21.712Z,40.05
2023-12-12T02:36:07.036Z,40.20
2023-12-12T02:38:52.332Z,40.16
2023-12-12T02:41:37.533Z,40.05
2023-12-12T02:44:22.505Z,39.83
2023-12-12T02:47:07.928Z,39.97
2023-12-12T02:49:52.929Z,39.91
2023-12-12T02:52:38.493Z,39.90
2023-12-12T02:55:23.795Z,39.78
2023-12-12T02:58:09.299Z,39.82
2023-12-12T03:00:54.487Z,40.13
2023-12-12T03:03:39.825Z,39.83
2023-12-12T03:06:24.801Z,40.01
2023-12-12T03:09:09.677Z,39.98
2023-12-12T03:11:54.923Z,40.04
2023-12-12T03:14:39.899Z,39.90
2023-12-12T03:17:24.950Z,39.80
2023-12-12T03:20:09.889Z,39.87
2023-12-12T03:22:54.711Z,39.69
2023-12-12T03:25:40.278Z,39.94
2023-12-12T03:28:25.352Z,40.14
2023-12-12T03:31:10.848Z,40.13
2023-12-12T03:33:56.211Z,39.94
2023-12-12T03:36:41.628Z,40.16
2023-12-12T03:39:26.696Z,39.82
2023-12-12T03:42:12.060Z,40.26
2023-12-12T03:44:57.431Z,40.05
2023-12-12T03:47:42.431Z,40.05
2023-12-12T03:50:28.039Z,39.83
2023-12-12T03:53:13.079Z,39.88
2023-12-12T03:55:58.160Z,40.00
2023-12-12T03:58:43.193Z,40.13
2023-12-12T04:01:28.377Z,39.81
2023-12-12T04:04:13.783Z,39.83
2023-12-12T04:06:59.378Z,39.80
2023-12-12T04:09:44.710Z,39.81
2023-12-12T04:12:29.712Z,39.85
2023-12-12T04:15:14.812Z,39.82
2023-12-12T04:17:59.923Z,39.68
2023-12-12T04:20:45.323Z,39.92
2023-12-12T04:23:30.715Z,40.05
2023-12-12T04:26:15.674Z,39.73
2023-12-12T04:29:00.780Z,39.90
2023-12-12T04:31:45.997Z,39.90
2023-12-12T04:34:31.373Z,39.89
2023-12-12T04:37:16.986Z,39.65
2023-12-12T04:40:02.438Z,39.86
2023-12-12T04:42:47.776Z,39.92
2023-12-12T04:45:32.757Z,39.76
2023-12-12T04:48:18.057Z,39.73
2023-12-12T04:51:03.490Z,39.57
2023-12-12T04:53:48.377Z,40.00
2023-12-12T04:56:33.423Z,39.61
2023-12-12T04:59:18.271Z,39.86
2023-12-12T05:02:03.556Z,39.92
2023-12-12T05:04:48.638Z,39.65
2023-12-12T05:07:33.884Z,40.02
2023-12-12T05:10:19.420Z,39.72
2023-12-12T05:13:04.708Z,39.86
2023-12-12T05:15:50.989Z,39.62
2023-12-12T05:18:36.681Z,39.71
2023-12-12T05:21:22.329Z,39.69
2023-12-12T05:24:07.740Z,39.73
2023-12-12T05:26:52.714Z,39.68
2023-12-12T05:29:37.731Z,39.86
2023-12-12T05:32:22.726Z,39.82
2023-12-12T05:35:08.166Z,39.60
2023-12-12T05:37:56.161Z,39.71
2023-12-12T05:40:41.559Z,39.83
2023-12-12T05:43:26.942Z,39.63
2023-12-12T05:46:11.925Z,39.66
2023-12-12T05:48:57.467Z,39.72
2023-12-12T05:51:42.761Z,40.02
2023-12-12T05:54:27.640Z,39.74
2023-12-12T05:57:12.854Z,39.71
2023-12-12T05:59:58.038Z,39.84
2023-12-12T06:02:42.977Z,39.95
2023-12-12T06:05:27.940Z,39.84
2023-12-12T06:08:13.210Z,39.85
2023-12-12T06:10:58.296Z,39.87
2023-12-12T06:13:43.418Z,39.72
2023-12-12T06:16:28.923Z,39.74
2023-12-12T06:19:14.182Z,40.00
2023-12-12T06:21:59.361Z,39.72
2023-12-12T06:24:44.744Z,39.70
2023-12-12T06:27:29.855Z,39.67
2023-12-12T06:30:15.147Z,39.81
2023-12-12T06:33:00.586Z,39.73
2023-12-12T06:35:45.927Z,39.74
2023-12-12T06:38:30.834Z,39.90
2023-12-12T06:41:15.783Z,39.94
2023-12-12T06:44:01.009Z,39.83
2023-12-12T06:46:46.029Z,39.91
2023-12-12T06:49:31.187Z,39.88
2023-12-12T06:52:16.515Z,39.72
2023-12-12T06:55:02.246Z,39.60
2023-12-12T06:57:47.720Z,39.97
2023-12-12T07:00:32.865Z,40.13
2023-12-12T07:03:18.269Z,40.01
2023-12-12T07:06:03.345Z,39.95
2023-12-12T07:08:50.180Z,40.38
2023-12-12T07:11:37.000Z,40.57
2023-12-12T07:14:21.815Z,41.03
2023-12-12T07:17:06.867Z,41.24
2023-12-12T07:19:52.085Z,42.90
2023-12-12T07:22:37.569Z,45.60
2023-12-12T07:25:23.060Z,44.61
2023-12-12T07:28:08.236Z,44.28
2023-12-12T07:30:53.772Z,44.88
2023-12-12T07:33:38.823Z,44.96
2023-12-12T07:36:23.879Z,44.79
2023-12-12T07:39:08.803Z,45.67
2023-12-12T07:41:53.745Z,45.54
2023-12-12T07:44:39.129Z,45.99
2023-12-12T07:47:33.964Z,45.94
2023-12-12T07:50:23.874Z,46.35
2023-12-12T07:53:08.874Z,45.74
2023-12-12T07:55:53.772Z,46.76
2023-12-12T07:58:38.753Z,46.44
2023-12-12T08:01:24.238Z,46.29
2023-12-12T08:04:09.418Z,46.30
2023-12-12T08:06:54.583Z,46.57
2023-12-12T08:09:39.878Z,46.46
2023-12-12T08:12:24.938Z,46.29
2023-12-12T08:15:09.727Z,46.22
2023-12-12T08:17:54.830Z,46.68
2023-12-12T08:20:40.248Z,46.30
2023-12-12T08:23:25.366Z,46.34
2023-12-12T08:26:10.310Z,46.10
2023-12-12T08:28:55.121Z,46.01
2023-12-12T08:31:40.133Z,45.78
2023-12-12T08:34:25.599Z,46.01
2023-12-12T08:37:10.671Z,45.66
2023-12-12T08:39:55.879Z,45.74
2023-12-12T08:42:40.953Z,45.69
2023-12-12T08:45:25.972Z,45.44
2023-12-12T08:48:11.040Z,45.23
2023-12-12T08:50:56.491Z,45.19
2023-12-12T08:53:41.303Z,45.09
2023-12-12T08:56:26.220Z,44.96
2023-12-12T08:59:11.467Z,44.99
2023-12-12T09:01:56.700Z,44.64
2023-12-12T09:04:42.064Z,44.73
2023-12-12T09:07:27.438Z,44.50
2023-12-12T09:10:12.673Z,44.59
2023-12-12T09:12:57.994Z,44.43
2023-12-12T09:15:43.403Z,44.42
2023-12-12T09:18:28.742Z,43.98
2023-12-12T09:21:14.187Z,44.09
2023-12-12T09:23:59.738Z,43.83
2023-12-12T09:26:44.642Z,43.76
2023-12-12T09:29:29.552Z,43.63
2023-12-12T09:32:14.709Z,43.75
2023-12-12T09:34:59.596Z,43.62
2023-12-12T09:37:44.622Z,43.37
2023-12-12T09:40:30.043Z,43.59
2023-12-12T09:43:15.454Z,43.35
2023-12-12T09:46:00.870Z,43.33
2023-12-12T09:48:46.295Z,43.36
2023-12-12T09:51:31.635Z,43.41
2023-12-12T09:54:16.836Z,43.16
2023-12-12T09:57:01.824Z,43.31
2023-12-12T09:59:47.258Z,43.18
2023-12-12T10:02:32.116Z,43.12
2023-12-12T10:05:17.082Z,43.03
2023-12-12T10:08:08.175Z,42.93
2023-12-12T10:10:56.133Z,42.66
2023-12-12T10:13:41.253Z,42.70
2023-12-12T10:16:26.596Z,42.59
2023-12-12T10:19:12.362Z,42.61
2023-12-12T10:21:57.795Z,42.52
2023-12-12T10:24:43.069Z,42.69
2023-12-12T10:27:27.931Z,42.63
2023-12-12T10:30:13.309Z,42.58
2023-12-12T10:32:58.650Z,42.50
2023-12-12T10:35:43.862Z,42.29
2023-12-12T10:38:28.858Z,42.10
2023-12-12T10:41:14.738Z,42.20
2023-12-12T10:44:00.343Z,42.12
2023-12-12T10:46:45.249Z,42.30
2023-12-12T10:49:30.369Z,42.34
2023-12-12T10:52:15.967Z,42.43
2023-12-12T10:55:01.105Z,42.46
2023-12-12T10:57:46.714Z,42.07
2023-12-12T11:00:32.262Z,42.56
2023-12-12T11:03:17.558Z,42.71
2023-12-12T11:06:02.642Z,42.37
2023-12-12T11:08:48.204Z,42.51
2023-12-12T11:11:33.646Z,42.49
2023-12-12T11:14:18.473Z,42.63
2023-12-12T11:17:03.487Z,42.50
2023-12-12T11:19:48.392Z,42.54
2023-12-12T11:22:35.558Z,42.46
2023-12-12T11:25:21.678Z,42.51
2023-12-12T11:28:09.378Z,42.88
2023-12-12T11:30:55.921Z,43.08
2023-12-12T11:33:41.486Z,43.35
2023-12-12T11:36:26.789Z,43.55
2023-12-12T11:39:11.691Z,44.37
2023-12-12T11:41:56.627Z,44.80
2023-12-12T11:44:41.896Z,45.38
2023-12-12T11:47:27.461Z,45.20
2023-12-12T11:50:12.700Z,45.30
2023-12-12T11:52:57.594Z,45.64
2023-12-12T11:55:42.422Z,46.10
2023-12-12T11:58:27.585Z,46.28
2023-12-12T12:01:13.055Z,46.49
2023-12-12T12:03:58.362Z,46.56
2023-12-12T12:06:43.810Z,46.44
2023-12-12T12:09:28.708Z,46.27
2023-12-12T12:12:13.719Z,46.45
2023-12-12T12:14:58.660Z,46.05
2023-12-12T12:17:43.969Z,46.30
2023-12-12T12:20:29.318Z,46.13
2023-12-12T12:23:14.096Z,45.94
2023-12-12T12:25:59.090Z,45.94
2023-12-12T12:28:44.177Z,45.83
2023-12-12T12:31:29.320Z,45.33
2023-12-12T12:34:14.377Z,45.44
2023-12-12T12:37:02.091Z,45.52
2023-12-12T12:39:47.415Z,45.03
2023-12-12T12:42:32.898Z,45.31
2023-12-12T12:45:18.225Z,45.23
2023-12-12T12:48:03.291Z,44.86
2023-12-12T12:50:48.704Z,44.87
2023-12-12T12:53:33.823Z,45.17
2023-12-12T13:02:37.269Z,44.72
2023-12-12T13:05:22.471Z,44.92
2023-12-12T13:08:07.622Z,44.84
2023-12-12T13:10:52.614Z,44.59
2023-12-12T13:13:38.125Z,44.53
2023-12-12T13:16:23.150Z,44.69
2023-12-12T13:19:08.643Z,44.55
2023-12-12T13:21:54.129Z,44.20
2023-12-12T13:24:39.528Z,44.36
2023-12-12T15:54:03.349Z,43.88
2023-12-12T15:56:48.774Z,44.10
2023-12-12T15:59:35.794Z,43.92
2023-12-12T16:02:20.948Z,43.64
2023-12-12T16:05:06.369Z,43.53
2023-12-12T16:07:51.775Z,43.42
2023-12-12T16:10:37.145Z,43.65
2023-12-12T16:13:22.749Z,43.33
2023-12-12T16:16:08.127Z,43.37
2023-12-12T16:18:53.635Z,43.65
2023-12-12T16:21:39.073Z,43.54
2023-12-12T16:24:24.015Z,43.72
2023-12-12T16:27:09.069Z,43.64
2023-12-12T16:29:53.865Z,43.79
2023-12-12T16:32:38.954Z,43.74
2023-12-12T16:35:24.237Z,43.62
2023-12-12T16:38:09.309Z,43.77
2023-12-12T16:40:54.380Z,43.55
2023-12-12T16:43:39.858Z,43.55
2023-12-12T16:46:25.385Z,43.66
2023-12-12T16:49:10.619Z,43.79
2023-12-12T17:11:30.206Z,43.61
2023-12-12T17:14:15.130Z,43.57
2023-12-12T17:17:00.073Z,43.84
